createdAt,value
2017-06-23T00:01:04.641Z,18.70
2017-06-23T00:03:32.144Z,18.80
2017-06-23T00:06:00.400Z,18.80
2017-06-23T00:08:27.927Z,18.80
2017-06-23T00:10:55.431Z,18.80
2017-06-23T00:13:22.905Z,18.80
2017-06-23T00:15:50.418Z,18.90
2017-06-23T00:18:17.926Z,19.00
2017-06-23T00:20:45.443Z,19.10
2017-06-23T00:23:13.880Z,19.10
2017-06-23T00:25:41.367Z,19.00
2017-06-23T00:28:08.941Z,19.00
2017-06-23T00:30:36.474Z,19.00
2017-06-23T00:33:03.964Z,19.00
2017-06-23T00:35:31.456Z,19.10
2017-06-23T00:37:58.981Z,19.00
2017-06-23T00:40:26.476Z,18.90
2017-06-23T00:42:54.786Z,18.90
2017-06-23T00:45:22.291Z,18.90
2017-06-23T00:47:49.794Z,18.80
2017-06-23T00:50:17.332Z,18.70
2017-06-23T00:52:45.624Z,18.80
2017-06-23T00:55:13.157Z,18.80
2017-06-23T00:57:40.655Z,18.80
2017-06-23T01:00:08.170Z,18.80
2017-06-23T01:02:35.663Z,18.80
2017-06-23T01:05:03.177Z,18.80
2017-06-23T01:07:30.681Z,18.70
2017-06-23T01:09:58.182Z,18.60
2017-06-23T01:12:25.674Z,18.50
2017-06-23T01:14:54.022Z,18.50
2017-06-23T01:17:21.510Z,18.50
2017-06-23T01:19:49.104Z,18.50
2017-06-23T01:22:16.613Z,18.50
2017-06-23T01:24:44.087Z,18.60
2017-06-23T01:27:11.623Z,18.50
2017-06-23T01:29:39.131Z,18.50
2017-06-23T01:32:06.638Z,18.40
2017-06-23T01:34:34.134Z,18.30
2017-06-23T01:37:01.636Z,18.10
2017-06-23T01:39:29.153Z,18.10
2017-06-23T01:41:57.425Z,17.90
2017-06-23T01:44:25.703Z,17.90
2017-06-23T01:46:53.978Z,17.90
2017-06-23T01:49:22.236Z,17.90
2017-06-23T01:51:49.730Z,17.90
2017-06-23T01:54:17.238Z,17.90
2017-06-23T01:56:44.753Z,17.90
2017-06-23T01:59:12.251Z,17.90
2017-06-23T02:01:39.758Z,17.90
2017-06-23T02:04:07.280Z,17.80
2017-06-23T02:06:34.802Z,17.80
2017-06-23T02:09:02.314Z,17.90
2017-06-23T02:11:29.796Z,17.80
2017-06-23T02:13:57.319Z,17.70
2017-06-23T02:16:24.836Z,17.80
2017-06-23T02:18:52.322Z,17.70
2017-06-23T02:21:19.832Z,17.70
2017-06-23T02:23:47.349Z,17.80
2017-06-23T02:26:14.834Z,17.70
2017-06-23T02:28:42.339Z,17.70
2017-06-23T02:31:09.865Z,17.70
2017-06-23T02:33:38.128Z,17.60
2017-06-23T02:36:06.412Z,17.70
2017-06-23T02:38:34.697Z,17.70
2017-06-23T02:41:02.186Z,17.70
2017-06-23T02:43:29.693Z,17.70
2017-06-23T02:45:57.190Z,17.70
2017-06-23T02:48:24.678Z,17.70
2017-06-23T02:50:52.188Z,17.70
2017-06-23T02:53:19.690Z,17.60
2017-06-23T02:55:47.184Z,17.70
2017-06-23T02:58:14.723Z,17.70
2017-06-23T03:00:42.478Z,17.70
2017-06-23T03:03:09.961Z,17.80
2017-06-23T03:05:37.502Z,17.80
2017-06-23T03:08:05.004Z,17.70
2017-06-23T03:10:33.255Z,17.80
2017-06-23T03:13:00.791Z,17.80
2017-06-23T03:15:28.354Z,17.80
2017-06-23T03:17:55.836Z,17.80
2017-06-23T03:20:23.335Z,17.90
2017-06-23T03:22:50.833Z,17.80
2017-06-23T03:25:18.324Z,17.90
2017-06-23T03:27:46.201Z,17.90
2017-06-23T03:30:13.694Z,18.00
2017-06-23T03:32:41.201Z,18.00
2017-06-23T03:35:08.710Z,18.10
2017-06-23T03:37:36.226Z,18.10
2017-06-23T03:40:03.775Z,18.10
2017-06-23T03:42:31.299Z,18.10
2017-06-23T03:44:58.803Z,18.10
2017-06-23T03:47:26.301Z,18.10
2017-06-23T03:49:53.800Z,18.10
2017-06-23T03:52:21.299Z,18.20
2017-06-23T03:54:48.792Z,18.20
2017-06-23T03:57:16.298Z,18.20
2017-06-23T03:59:43.840Z,18.30
2017-06-23T04:02:11.330Z,18.20
2017-06-23T04:04:38.846Z,18.30
2017-06-23T04:07:06.361Z,18.30
2017-06-23T04:09:33.867Z,18.30
2017-06-23T04:12:01.362Z,18.30
2017-06-23T04:14:29.675Z,18.40
2017-06-23T04:16:57.223Z,18.30
2017-06-23T04:19:24.730Z,18.30
2017-06-23T04:21:52.224Z,18.40
2017-06-23T04:24:19.737Z,18.40
2017-06-23T04:26:47.225Z,18.50
2017-06-23T04:29:14.715Z,18.50
2017-06-23T04:31:42.282Z,18.60
2017-06-23T04:34:09.798Z,18.60
2017-06-23T04:36:37.287Z,18.60
2017-06-23T04:39:04.786Z,18.60
2017-06-23T04:41:32.284Z,18.70
2017-06-23T04:44:01.201Z,18.90
2017-06-23T04:46:28.704Z,18.90
2017-06-23T04:48:56.234Z,18.80
2017-06-23T04:51:23.762Z,18.80
2017-06-23T04:53:52.039Z,18.70
2017-06-23T04:56:20.311Z,18.60
2017-06-23T04:58:48.580Z,18.60
2017-06-23T05:01:16.861Z,18.60
2017-06-23T05:03:45.213Z,18.60
2017-06-23T05:06:12.699Z,18.60
2017-06-23T05:08:40.206Z,18.50
2017-06-23T05:11:07.702Z,18.40
2017-06-23T05:13:35.198Z,18.40
2017-06-23T05:16:02.814Z,18.30
2017-06-23T05:18:30.320Z,18.30
2017-06-23T05:20:57.811Z,18.30
2017-06-23T05:23:25.314Z,18.30
2017-06-23T05:25:52.995Z,18.30
2017-06-23T05:28:20.489Z,18.20
2017-06-23T05:30:47.991Z,18.20
2017-06-23T05:33:15.518Z,18.20
2017-06-23T05:35:43.086Z,18.20
2017-06-23T05:38:11.283Z,18.20
2017-06-23T05:40:38.801Z,18.20
2017-06-23T05:43:06.300Z,18.20
2017-06-23T05:45:34.573Z,18.20
2017-06-23T05:48:02.140Z,18.20
2017-06-23T05:50:29.641Z,18.30
2017-06-23T05:52:57.150Z,18.20
2017-06-23T05:55:24.664Z,18.20
2017-06-23T05:57:53.602Z,18.20
2017-06-23T06:00:21.080Z,18.20
2017-06-23T06:02:48.595Z,18.10
2017-06-23T06:05:16.085Z,18.10
2017-06-23T06:07:44.443Z,18.20
2017-06-23T06:10:12.053Z,18.10
2017-06-23T06:12:39.536Z,18.20
2017-06-23T06:15:07.048Z,18.20
2017-06-23T06:17:34.555Z,18.30
2017-06-23T06:20:02.142Z,18.40
2017-06-23T06:22:29.705Z,18.40
2017-06-23T06:24:57.202Z,18.50
2017-06-23T06:27:24.718Z,18.50
2017-06-23T06:29:52.228Z,18.50
2017-06-23T06:32:19.741Z,18.60
2017-06-23T06:34:47.238Z,18.70
2017-06-23T06:37:14.742Z,18.80
2017-06-23T06:39:42.326Z,18.80
2017-06-23T06:42:09.824Z,18.90
2017-06-23T06:44:37.346Z,18.90
2017-06-23T06:47:04.841Z,18.90
2017-06-23T06:49:32.381Z,18.90
2017-06-23T06:52:00.661Z,18.90
2017-06-23T06:54:28.937Z,18.80
2017-06-23T06:56:57.218Z,18.80
2017-06-23T06:59:24.740Z,18.70
2017-06-23T07:01:52.259Z,18.60
2017-06-23T07:04:19.787Z,18.70
2017-06-23T07:06:48.160Z,18.70
2017-06-23T07:09:15.677Z,18.70
2017-06-23T07:11:43.199Z,18.70
2017-06-23T07:14:10.710Z,18.70
2017-06-23T07:16:38.198Z,18.80
2017-06-23T07:19:05.729Z,18.80
2017-06-23T07:21:33.239Z,18.80
2017-06-23T07:24:00.766Z,18.90
2017-06-23T07:26:28.287Z,19.00
2017-06-23T07:28:55.796Z,19.00
2017-06-23T07:31:24.116Z,18.90
2017-06-23T07:33:51.662Z,18.90
2017-06-23T07:36:19.211Z,19.00
2017-06-23T07:38:47.461Z,19.00
2017-06-23T07:41:15.026Z,19.00
2017-06-23T07:43:42.530Z,18.90
2017-06-23T07:46:10.013Z,18.90
2017-06-23T07:48:37.521Z,18.80
2017-06-23T07:51:05.815Z,18.90
2017-06-23T07:53:33.306Z,18.80
2017-06-23T07:56:00.815Z,19.00
2017-06-23T07:58:28.334Z,19.20
2017-06-23T08:00:55.815Z,19.40
2017-06-23T08:03:23.321Z,19.50
2017-06-23T08:05:50.821Z,19.50
2017-06-23T08:08:19.630Z,19.50
2017-06-23T08:10:47.895Z,19.40
2017-06-23T08:13:15.411Z,19.40
2017-06-23T08:15:42.926Z,19.50
2017-06-23T08:18:10.430Z,19.40
2017-06-23T08:20:38.630Z,19.40
2017-06-23T08:23:06.159Z,19.50
2017-06-23T08:25:33.641Z,19.70
2017-06-23T08:28:01.142Z,19.80
2017-06-23T08:30:29.422Z,20.00
2017-06-23T08:32:57.688Z,20.00
2017-06-23T08:35:25.957Z,19.90
2017-06-23T08:37:53.447Z,19.90
2017-06-23T08:40:20.910Z,19.90
2017-06-23T08:42:48.451Z,19.90
2017-06-23T08:45:22.086Z,20.10
2017-06-23T08:47:49.605Z,20.40
2017-06-23T08:50:18.318Z,20.70
2017-06-23T08:52:45.795Z,20.70
2017-06-23T08:55:13.318Z,20.80
2017-06-23T08:57:40.980Z,21.00
2017-06-23T09:00:08.472Z,21.00
2017-06-23T09:02:35.965Z,21.10
2017-06-23T09:05:03.493Z,21.20
2017-06-23T09:07:30.983Z,21.30
2017-06-23T09:09:58.536Z,21.40
2017-06-23T09:12:26.028Z,21.50
2017-06-23T09:14:54.321Z,21.50
2017-06-23T09:17:21.815Z,21.40
2017-06-23T09:19:49.295Z,21.60
2017-06-23T09:22:16.781Z,21.60
2017-06-23T09:24:44.262Z,21.80
2017-06-23T09:27:11.803Z,21.90
2017-06-23T09:29:40.050Z,21.80
2017-06-23T09:32:07.542Z,21.80
2017-06-23T09:34:35.085Z,21.90
2017-06-23T09:37:02.591Z,21.80
2017-06-23T09:39:30.059Z,21.80
2017-06-23T09:41:57.552Z,21.90
2017-06-23T09:44:25.051Z,21.80
2017-06-23T09:46:52.557Z,21.90
2017-06-23T09:49:20.053Z,22.10
2017-06-23T09:51:47.573Z,22.00
2017-06-23T09:54:15.034Z,22.00
2017-06-23T09:56:42.566Z,21.70
2017-06-23T09:59:10.066Z,21.70
2017-06-23T10:01:37.596Z,21.70
2017-06-23T10:04:05.873Z,21.70
2017-06-23T10:06:33.366Z,21.80
2017-06-23T10:09:00.857Z,21.70
2017-06-23T10:11:28.381Z,21.70
2017-06-23T10:13:55.867Z,21.60
2017-06-23T10:16:23.362Z,21.70
2017-06-23T10:18:50.843Z,21.70
2017-06-23T10:21:18.381Z,21.70
2017-06-23T10:23:45.914Z,21.60
2017-06-23T10:26:13.418Z,21.90
2017-06-23T10:28:41.483Z,22.00
2017-06-23T10:31:09.001Z,22.30
2017-06-23T10:33:36.543Z,22.70
2017-06-23T10:36:04.026Z,22.90
2017-06-23T10:38:31.534Z,22.80
2017-06-23T10:40:59.040Z,22.70
2017-06-23T10:43:26.524Z,22.50
2017-06-23T10:45:54.028Z,22.40
2017-06-23T10:48:21.555Z,22.30
2017-06-23T10:50:49.039Z,22.10
2017-06-23T10:53:16.541Z,22.20
2017-06-23T10:55:44.051Z,22.10
2017-06-23T10:58:11.574Z,22.10
2017-06-23T11:00:39.084Z,22.20
2017-06-23T11:03:08.217Z,22.20
2017-06-23T11:05:37.261Z,22.20
2017-06-23T11:08:04.840Z,22.20
2017-06-23T11:10:32.375Z,22.30
2017-06-23T11:12:59.876Z,22.20
2017-06-23T11:15:27.375Z,22.10
2017-06-23T11:17:54.886Z,22.20
2017-06-23T11:20:22.381Z,22.20
2017-06-23T11:22:49.898Z,22.30
2017-06-23T11:25:18.198Z,22.40
2017-06-23T11:27:45.774Z,22.30
2017-06-23T11:30:13.278Z,22.60
2017-06-23T11:32:40.784Z,22.90
2017-06-23T11:35:08.301Z,22.90
2017-06-23T11:37:35.789Z,22.90
2017-06-23T11:40:03.293Z,22.90
2017-06-23T11:42:30.782Z,23.10
2017-06-23T11:44:59.056Z,23.20
2017-06-23T11:47:27.311Z,23.50
2017-06-23T11:49:54.786Z,23.50
2017-06-23T11:52:22.312Z,23.50
2017-06-23T11:54:49.814Z,23.30
2017-06-23T11:57:17.316Z,23.20
2017-06-23T11:59:44.828Z,23.20
2017-06-23T12:02:13.095Z,23.30
2017-06-23T12:04:40.590Z,23.30
2017-06-23T12:07:08.128Z,23.50
2017-06-23T12:09:35.639Z,23.70
2017-06-23T12:12:03.141Z,23.90
2017-06-23T12:14:31.380Z,23.60
2017-06-23T12:16:58.864Z,23.50
2017-06-23T12:19:26.392Z,23.50
2017-06-23T12:21:53.898Z,23.30
2017-06-23T12:24:21.406Z,23.20
2017-06-23T12:26:48.900Z,23.10
2017-06-23T12:29:16.391Z,23.00
2017-06-23T12:31:43.908Z,22.90
2017-06-23T12:34:11.439Z,22.90
2017-06-23T12:36:38.926Z,23.10
2017-06-23T12:39:06.743Z,23.00
2017-06-23T12:41:34.235Z,22.90
2017-06-23T12:44:01.736Z,23.00
2017-06-23T12:46:30.016Z,23.40
2017-06-23T12:48:58.278Z,23.50
2017-06-23T12:51:25.773Z,23.50
2017-06-23T12:53:53.307Z,23.60
2017-06-23T12:56:20.786Z,23.70
2017-06-23T12:58:48.292Z,23.60
2017-06-23T13:01:15.786Z,23.60
2017-06-23T13:03:44.056Z,23.40
2017-06-23T13:06:12.342Z,23.60
2017-06-23T13:08:40.580Z,23.80
2017-06-23T13:11:08.096Z,23.80
2017-06-23T13:13:35.589Z,23.90
2017-06-23T13:16:03.133Z,24.00
2017-06-23T13:18:30.633Z,24.10
2017-06-23T13:20:58.252Z,24.20
2017-06-23T13:23:25.756Z,24.20
2017-06-23T13:25:53.297Z,24.00
2017-06-23T13:28:20.797Z,23.80
2017-06-23T13:30:48.326Z,23.60
2017-06-23T13:33:15.829Z,23.50
2017-06-23T13:35:43.338Z,23.40
2017-06-23T13:38:10.825Z,23.30
2017-06-23T13:40:38.351Z,23.20
2017-06-23T13:43:05.859Z,23.10
2017-06-23T13:45:33.347Z,23.10
2017-06-23T13:48:00.867Z,23.00
2017-06-23T13:50:28.364Z,23.00
2017-06-23T13:52:55.845Z,22.90
2017-06-23T13:55:23.344Z,22.90
2017-06-23T13:57:51.606Z,23.20
2017-06-23T14:00:19.122Z,23.20
2017-06-23T14:02:46.845Z,23.50
2017-06-23T14:05:14.338Z,23.70
2017-06-23T14:07:41.854Z,23.80
2017-06-23T14:10:10.125Z,23.40
2017-06-23T14:12:37.633Z,23.40
2017-06-23T14:15:05.115Z,23.30
2017-06-23T14:17:32.601Z,23.10
2017-06-23T14:20:00.108Z,23.00
2017-06-23T14:22:27.620Z,22.90
2017-06-23T14:24:55.127Z,22.90
2017-06-23T14:27:22.635Z,22.90
2017-06-23T14:29:50.125Z,22.90
2017-06-23T14:32:17.618Z,22.80
2017-06-23T14:34:45.142Z,22.70
2017-06-23T14:37:12.629Z,22.60
2017-06-23T14:39:40.104Z,22.60
2017-06-23T14:42:07.625Z,22.60
2017-06-23T14:44:35.129Z,22.70
2017-06-23T14:47:02.616Z,22.90
2017-06-23T14:49:30.902Z,23.60
2017-06-23T14:51:59.860Z,23.70
2017-06-23T14:54:27.380Z,23.60
2017-06-23T14:56:54.912Z,23.80
2017-06-23T14:59:23.203Z,23.90
2017-06-23T15:01:50.695Z,23.90
2017-06-23T15:04:18.258Z,23.80
2017-06-23T15:06:45.772Z,23.90
2017-06-23T15:09:14.035Z,24.20
2017-06-23T15:11:42.597Z,24.30
2017-06-23T15:14:10.097Z,24.30
2017-06-23T15:16:38.443Z,24.10
2017-06-23T15:19:05.931Z,24.00
2017-06-23T15:21:33.514Z,24.00
2017-06-23T15:24:01.029Z,24.10
2017-06-23T15:26:28.529Z,24.40
2017-06-23T15:28:56.093Z,24.40
2017-06-23T15:31:23.579Z,24.80
2017-06-23T15:33:51.065Z,24.90
2017-06-23T15:36:19.328Z,24.70
2017-06-23T15:38:46.828Z,24.70
2017-06-23T15:41:14.326Z,24.70
2017-06-23T15:43:41.865Z,24.60
2017-06-23T15:46:09.375Z,24.50
2017-06-23T15:48:36.881Z,24.50
2017-06-23T15:51:04.375Z,24.60
2017-06-23T15:53:31.951Z,24.70
2017-06-23T15:55:59.461Z,25.00
2017-06-23T15:58:26.947Z,25.40
2017-06-23T16:00:54.425Z,25.60
2017-06-23T16:03:22.759Z,25.70
2017-06-23T16:05:50.321Z,25.50
2017-06-23T16:08:17.836Z,25.40
2017-06-23T16:10:45.341Z,25.10
2017-06-23T16:13:12.862Z,25.00
2017-06-23T16:15:41.150Z,25.00
2017-06-23T16:18:08.685Z,24.90
2017-06-23T16:20:36.207Z,25.30
2017-06-23T16:23:03.715Z,25.30
2017-06-23T16:25:31.976Z,25.40
2017-06-23T16:27:59.496Z,25.30
2017-06-23T16:30:27.034Z,25.10
2017-06-23T16:32:54.551Z,24.80
2017-06-23T16:35:22.046Z,24.60
2017-06-23T16:37:49.575Z,24.60
2017-06-23T16:40:17.061Z,24.60
2017-06-23T16:42:45.538Z,24.50
2017-06-23T16:45:13.058Z,24.50
2017-06-23T16:47:40.543Z,24.50
2017-06-23T16:50:08.800Z,24.80
2017-06-23T16:52:36.273Z,24.80
2017-06-23T16:55:03.788Z,24.90
2017-06-23T16:57:31.354Z,24.80
2017-06-23T16:59:58.904Z,24.60
2017-06-23T17:02:26.402Z,24.70
2017-06-23T17:04:54.422Z,24.70
2017-06-23T17:07:21.955Z,24.60
2017-06-23T17:09:49.482Z,24.50
2017-06-23T17:12:19.836Z,24.40
2017-06-23T17:14:47.329Z,24.40
2017-06-23T17:17:14.809Z,24.30
2017-06-23T17:19:42.356Z,24.10
2017-06-23T17:22:09.859Z,24.00
2017-06-23T17:24:37.337Z,23.80
2017-06-23T17:27:05.601Z,23.80
2017-06-23T17:29:33.857Z,23.70
2017-06-23T17:32:01.314Z,23.70
2017-06-23T17:34:28.846Z,23.70
2017-06-23T17:36:58.703Z,23.60
2017-06-23T17:39:26.228Z,23.60
2017-06-23T17:41:53.747Z,23.50
2017-06-23T17:44:21.433Z,23.50
2017-06-23T17:46:48.977Z,23.40
2017-06-23T17:49:16.483Z,23.40
2017-06-23T17:51:43.982Z,23.40
2017-06-23T17:54:11.515Z,23.30
2017-06-23T17:56:39.078Z,23.20
2017-06-23T17:59:06.609Z,23.30
2017-06-23T18:01:34.112Z,23.30
2017-06-23T18:04:02.391Z,23.30
2017-06-23T18:06:30.781Z,23.20
2017-06-23T18:08:58.341Z,23.20
2017-06-23T18:11:25.825Z,23.20
2017-06-23T18:13:53.351Z,23.10
2017-06-23T18:16:20.865Z,23.10
2017-06-23T18:18:48.383Z,23.10
2017-06-23T18:21:15.866Z,23.20
2017-06-23T18:23:43.375Z,23.30
2017-06-23T18:26:10.958Z,23.20
2017-06-23T18:28:38.621Z,23.20
2017-06-23T18:31:06.180Z,23.30
2017-06-23T18:33:33.674Z,23.20
2017-06-23T18:36:01.235Z,23.30
2017-06-23T18:38:28.946Z,23.30
2017-06-23T18:40:56.443Z,23.30
2017-06-23T18:43:23.953Z,23.20
2017-06-23T18:45:51.466Z,23.20
2017-06-23T18:48:18.942Z,23.10
2017-06-23T18:50:46.541Z,23.10
2017-06-23T18:53:14.858Z,23.00
2017-06-23T18:55:42.473Z,23.00
2017-06-23T18:58:09.978Z,23.00
2017-06-23T19:00:37.477Z,23.00
2017-06-23T19:03:05.044Z,23.00
2017-06-23T19:05:32.536Z,22.90
2017-06-23T19:08:00.057Z,22.90
2017-06-23T19:10:27.570Z,22.80
2017-06-23T19:12:55.053Z,22.80
2017-06-23T19:15:22.562Z,22.70
2017-06-23T19:17:50.837Z,22.60
2017-06-23T19:20:19.112Z,22.70
2017-06-23T19:22:47.382Z,22.70
2017-06-23T19:25:15.655Z,22.70
2017-06-23T19:27:43.200Z,22.70
2017-06-23T19:30:10.679Z,22.70
2017-06-23T19:32:38.173Z,22.70
2017-06-23T19:35:05.734Z,22.60
2017-06-23T19:37:33.265Z,22.60
2017-06-23T19:40:00.768Z,22.60
2017-06-23T19:42:28.437Z,22.60
2017-06-23T19:44:56.063Z,22.50
2017-06-23T19:47:23.573Z,22.50
2017-06-23T19:49:51.102Z,22.50
2017-06-23T19:52:18.633Z,22.50
2017-06-23T19:54:46.122Z,22.60
2017-06-23T19:57:13.641Z,22.60
2017-06-23T19:59:41.894Z,22.60
2017-06-23T20:02:09.414Z,22.60
2017-06-23T20:04:36.903Z,22.60
2017-06-23T20:07:04.421Z,22.60
2017-06-23T20:09:31.916Z,22.50
2017-06-23T20:11:59.402Z,22.60
2017-06-23T20:14:26.913Z,22.60
2017-06-23T20:16:54.417Z,22.60
2017-06-23T20:19:21.916Z,22.60
2017-06-23T20:21:49.448Z,22.50
2017-06-23T20:24:17.754Z,22.50
2017-06-23T20:26:45.310Z,22.50
2017-06-23T20:29:12.839Z,22.50
2017-06-23T20:31:41.110Z,22.40
2017-06-23T20:34:08.738Z,22.40
2017-06-23T20:36:36.231Z,22.40
2017-06-23T20:39:03.747Z,22.40
2017-06-23T20:41:31.272Z,22.30
2017-06-23T20:43:58.752Z,22.30
2017-06-23T20:46:26.239Z,22.40
2017-06-23T20:48:53.725Z,22.40
2017-06-23T20:51:21.223Z,22.40
2017-06-23T20:53:48.734Z,22.40
2017-06-23T20:56:16.221Z,22.30
2017-06-23T20:58:43.763Z,22.30
2017-06-23T21:01:12.037Z,22.30
2017-06-23T21:03:39.539Z,22.30
2017-06-23T21:06:07.051Z,22.30
2017-06-23T21:08:34.539Z,22.30
2017-06-23T21:11:02.052Z,22.30
2017-06-23T21:13:29.579Z,22.30
2017-06-23T21:15:57.115Z,22.20
2017-06-23T21:18:24.601Z,22.20
2017-06-23T21:20:52.989Z,22.20
2017-06-23T21:23:20.488Z,22.20
2017-06-23T21:25:48.005Z,22.20
2017-06-23T21:28:15.553Z,22.20
2017-06-23T21:30:43.324Z,22.10
2017-06-23T21:33:10.837Z,22.20
2017-06-23T21:35:39.085Z,22.20
2017-06-23T21:38:06.598Z,22.20
2017-06-23T21:40:54.829Z,22.20
2017-06-23T21:43:22.340Z,22.30
2017-06-23T21:45:49.837Z,22.30
2017-06-23T21:48:18.104Z,22.30
2017-06-23T21:50:45.611Z,22.30
2017-06-23T21:53:13.108Z,22.30
2017-06-23T21:55:40.622Z,22.20
2017-06-23T21:58:08.107Z,22.20
2017-06-23T22:00:35.654Z,22.30
2017-06-23T22:03:03.166Z,22.40
2017-06-23T22:05:30.656Z,22.30
2017-06-23T22:07:58.175Z,22.30
2017-06-23T22:10:25.679Z,22.30
2017-06-23T22:12:53.175Z,22.30
2017-06-23T22:15:20.715Z,22.20
2017-06-23T22:17:48.261Z,22.30
2017-06-23T22:20:15.760Z,22.30
2017-06-23T22:22:43.272Z,22.20
2017-06-23T22:25:10.793Z,22.30
2017-06-23T22:27:38.297Z,22.40
2017-06-23T22:30:05.812Z,22.30
2017-06-23T22:32:33.405Z,22.30
2017-06-23T22:35:00.947Z,22.10
2017-06-23T22:37:28.471Z,22.20
2017-06-23T22:39:55.966Z,22.10
2017-06-23T22:42:24.541Z,22.00
2017-06-23T22:44:52.058Z,22.00
2017-06-23T22:47:19.573Z,21.90
2017-06-23T22:49:47.831Z,21.90
2017-06-23T22:52:15.350Z,21.90
2017-06-23T22:54:42.892Z,21.80
2017-06-23T22:57:10.377Z,21.70
2017-06-23T22:59:37.869Z,21.70
2017-06-23T23:02:05.386Z,21.70
2017-06-23T23:04:32.883Z,21.60
2017-06-23T23:07:00.375Z,21.60
2017-06-23T23:09:27.876Z,21.60
2017-06-23T23:11:55.359Z,21.50
2017-06-23T23:14:22.945Z,21.50
2017-06-23T23:16:50.435Z,21.50
2017-06-23T23:19:17.954Z,21.50
2017-06-23T23:21:46.219Z,21.50
2017-06-23T23:24:14.477Z,21.60
2017-06-23T23:26:41.959Z,21.60
2017-06-23T23:29:10.279Z,21.60
2017-06-23T23:31:37.775Z,21.50
2017-06-23T23:34:05.252Z,21.40
2017-06-23T23:36:32.748Z,21.40
2017-06-23T23:39:00.239Z,21.40
2017-06-23T23:41:27.738Z,21.40
2017-06-23T23:43:55.996Z,21.40
2017-06-23T23:46:23.492Z,21.40
2017-06-23T23:48:50.971Z,21.40
2017-06-23T23:51:18.460Z,21.30
2017-06-23T23:53:45.938Z,21.20
2017-06-23T23:56:13.459Z,21.30
2017-06-23T23:58:40.975Z,21.40
